EFW16PH EGKK-LPFR
Flight info
| Callsign | EFW16PH |
|---|---|
| Flight time | 2h 22m |
| Altitude | 35000 |
| Route | IMVUR N63 SAM M195 LORKU DCT POZOF DCT BALDA DCT ABUPI DCT ORVED DCT UPULO DCT ALAGU |
| Aircraft | A321/M-SDE3FGHIRWY/LB1 |
Departure
| Time | 2026-05-06 18:56 |
|---|---|
| Airport | London Gatwick Airport (EGKK) |
Arrival
| Time | 2026-05-06 21:19 |
|---|---|
| Airport | Faro - Gago Coutinho International Airport (LPFR) |
| Time | Latitude | Longitude | Altitude | Speed | Heading |
|---|---|---|---|---|---|
| 2026-05-06 18:02 | 51.15542 | -0.17183 | 208 ft | 0 kts | 133° |
| 2026-05-06 18:35 | 51.15546 | -0.17189 | 204 ft | 4 kts | 134° |
| 2026-05-06 18:36 | 51.15565 | -0.17218 | 215 ft | 4 kts | 143° |
| 2026-05-06 18:36 | 51.15588 | -0.17240 | 214 ft | 4 kts | 164° |
| 2026-05-06 18:36 | 51.15609 | -0.17242 | 215 ft | 4 kts | 222° |
| 2026-05-06 18:36 | 51.15615 | -0.17229 | 214 ft | 1 kts | 256° |
| 2026-05-06 18:37 | 51.15615 | -0.17226 | 214 ft | 0 kts | 256° |
| 2026-05-06 18:40 | 51.15615 | -0.17230 | 204 ft | 1 kts | 256° |
| 2026-05-06 18:40 | 51.15612 | -0.17248 | 215 ft | 2 kts | 256° |
| 2026-05-06 18:40 | 51.15607 | -0.17281 | 204 ft | 4 kts | 257° |
| 2026-05-06 18:40 | 51.15600 | -0.17328 | 210 ft | 5 kts | 257° |
| 2026-05-06 18:41 | 51.15591 | -0.17388 | 208 ft | 6 kts | 254° |
| 2026-05-06 18:41 | 51.15575 | -0.17432 | 213 ft | 3 kts | 229° |
| 2026-05-06 18:41 | 51.15567 | -0.17445 | 210 ft | 2 kts | 222° |
| 2026-05-06 18:41 | 51.15556 | -0.17461 | 210 ft | 3 kts | 222° |
| 2026-05-06 18:42 | 51.15541 | -0.17495 | 209 ft | 5 kts | 244° |
| 2026-05-06 18:42 | 51.15529 | -0.17567 | 210 ft | 7 kts | 259° |
| 2026-05-06 18:42 | 51.15521 | -0.17637 | 204 ft | 5 kts | 256° |
| 2026-05-06 18:42 | 51.15513 | -0.17690 | 208 ft | 6 kts | 258° |
| 2026-05-06 18:43 | 51.15504 | -0.17756 | 204 ft | 6 kts | 258° |
| 2026-05-06 18:43 | 51.15497 | -0.17812 | 204 ft | 6 kts | 258° |
| 2026-05-06 18:43 | 51.15485 | -0.17894 | 211 ft | 9 kts | 257° |
| 2026-05-06 18:43 | 51.15469 | -0.18010 | 208 ft | 12 kts | 257° |
| 2026-05-06 18:44 | 51.15451 | -0.18138 | 210 ft | 12 kts | 257° |
| 2026-05-06 18:44 | 51.15430 | -0.18253 | 210 ft | 11 kts | 235° |
| 2026-05-06 18:44 | 51.15361 | -0.18268 | 208 ft | 11 kts | 169° |
| 2026-05-06 18:44 | 51.15283 | -0.18241 | 208 ft | 12 kts | 167° |
| 2026-05-06 18:45 | 51.15203 | -0.18240 | 208 ft | 12 kts | 219° |
| 2026-05-06 18:45 | 51.15181 | -0.18367 | 204 ft | 13 kts | 259° |
| 2026-05-06 18:45 | 51.15161 | -0.18507 | 213 ft | 13 kts | 257° |
| 2026-05-06 18:45 | 51.15142 | -0.18657 | 207 ft | 14 kts | 257° |
| 2026-05-06 18:46 | 51.15118 | -0.18817 | 209 ft | 15 kts | 257° |
| 2026-05-06 18:46 | 51.15094 | -0.18983 | 208 ft | 16 kts | 258° |
| 2026-05-06 18:46 | 51.15071 | -0.19155 | 209 ft | 16 kts | 258° |
| 2026-05-06 18:46 | 51.15028 | -0.19261 | 211 ft | 12 kts | 189° |
| 2026-05-06 18:47 | 51.14964 | -0.19303 | 210 ft | 10 kts | 234° |
| 2026-05-06 18:47 | 51.14944 | -0.19411 | 208 ft | 11 kts | 258° |
| 2026-05-06 18:47 | 51.14927 | -0.19536 | 213 ft | 12 kts | 257° |
| 2026-05-06 18:47 | 51.14907 | -0.19674 | 207 ft | 13 kts | 257° |
| 2026-05-06 18:48 | 51.14887 | -0.19818 | 210 ft | 14 kts | 258° |
| 2026-05-06 18:48 | 51.14865 | -0.19984 | 208 ft | 16 kts | 258° |
| 2026-05-06 18:48 | 51.14841 | -0.20155 | 213 ft | 15 kts | 258° |
| 2026-05-06 18:48 | 51.14823 | -0.20292 | 211 ft | 9 kts | 258° |
| 2026-05-06 18:49 | 51.14810 | -0.20397 | 209 ft | 10 kts | 258° |
| 2026-05-06 18:49 | 51.14796 | -0.20499 | 213 ft | 9 kts | 257° |
| 2026-05-06 18:49 | 51.14781 | -0.20604 | 208 ft | 10 kts | 257° |
| 2026-05-06 18:49 | 51.14763 | -0.20724 | 207 ft | 12 kts | 257° |
| 2026-05-06 18:50 | 51.14746 | -0.20851 | 208 ft | 12 kts | 257° |
| 2026-05-06 18:50 | 51.14728 | -0.20981 | 209 ft | 12 kts | 258° |
| 2026-05-06 18:50 | 51.14711 | -0.21102 | 211 ft | 8 kts | 258° |
| 2026-05-06 18:50 | 51.14703 | -0.21167 | 205 ft | 6 kts | 257° |
| 2026-05-06 18:51 | 51.14701 | -0.21182 | 206 ft | 0 kts | 257° |
| 2026-05-06 18:51 | 51.14700 | -0.21189 | 206 ft | 2 kts | 257° |
| 2026-05-06 18:52 | 51.14695 | -0.21223 | 210 ft | 5 kts | 258° |
| 2026-05-06 18:52 | 51.14683 | -0.21298 | 212 ft | 9 kts | 247° |
| 2026-05-06 18:52 | 51.14637 | -0.21333 | 204 ft | 3 kts | 173° |
| 2026-05-06 18:52 | 51.14632 | -0.21331 | 205 ft | 0 kts | 169° |
| 2026-05-06 18:54 | 51.14631 | -0.21331 | 204 ft | 1 kts | 169° |
| 2026-05-06 18:54 | 51.14605 | -0.21322 | 208 ft | 7 kts | 168° |
| 2026-05-06 18:55 | 51.14546 | -0.21281 | 210 ft | 11 kts | 140° |
| 2026-05-06 18:55 | 51.14521 | -0.21160 | 204 ft | 13 kts | 85° |
| 2026-05-06 18:55 | 51.14533 | -0.21067 | 206 ft | 8 kts | 77° |
| 2026-05-06 18:55 | 51.14559 | -0.20880 | 205 ft | 42 kts | 77° |
| 2026-05-06 18:56 | 51.14672 | -0.20058 | 214 ft | 109 kts | 77° |
| 2026-05-06 18:56 | 51.14875 | -0.18583 | 214 ft | 162 kts | 78° |
| 2026-05-06 18:56 | 51.15121 | -0.16759 | 742 ft | 167 kts | 77° |
| 2026-05-06 18:56 | 51.15381 | -0.14959 | 1491 ft | 167 kts | 73° |
| 2026-05-06 18:57 | 51.15650 | -0.13130 | 1965 ft | 177 kts | 75° |
| 2026-05-06 18:57 | 51.15933 | -0.11098 | 2192 ft | 198 kts | 75° |
| 2026-05-06 18:57 | 51.16242 | -0.08841 | 2413 ft | 219 kts | 75° |
| 2026-05-06 18:57 | 51.16772 | -0.06559 | 2921 ft | 221 kts | 51° |
| 2026-05-06 18:58 | 51.18010 | -0.05184 | 3503 ft | 221 kts | 14° |
| 2026-05-06 18:58 | 51.19537 | -0.05223 | 4069 ft | 223 kts | 348° |
| 2026-05-06 18:58 | 51.21053 | -0.05821 | 4657 ft | 227 kts | 336° |
| 2026-05-06 18:58 | 51.22272 | -0.07398 | 5271 ft | 231 kts | 302° |
| 2026-05-06 18:59 | 51.22760 | -0.09903 | 5604 ft | 251 kts | 268° |
| 2026-05-06 18:59 | 51.22496 | -0.12747 | 6026 ft | 265 kts | 260° |
| 2026-05-06 18:59 | 51.22147 | -0.15669 | 6686 ft | 270 kts | 259° |
| 2026-05-06 18:59 | 51.21791 | -0.18626 | 7372 ft | 273 kts | 260° |
| 2026-05-06 19:00 | 51.21434 | -0.21608 | 8064 ft | 275 kts | 261° |
| 2026-05-06 19:00 | 51.21076 | -0.24618 | 8770 ft | 278 kts | 261° |
| 2026-05-06 19:00 | 51.20718 | -0.27665 | 9446 ft | 281 kts | 261° |
| 2026-05-06 19:00 | 51.20364 | -0.30699 | 10088 ft | 284 kts | 261° |
| 2026-05-06 19:01 | 51.20004 | -0.33807 | 10702 ft | 286 kts | 261° |
| 2026-05-06 19:01 | 51.19625 | -0.36946 | 11333 ft | 289 kts | 260° |
| 2026-05-06 19:01 | 51.19222 | -0.40089 | 11959 ft | 291 kts | 259° |
| 2026-05-06 19:01 | 51.18802 | -0.43253 | 12580 ft | 294 kts | 259° |
| 2026-05-06 19:02 | 51.18374 | -0.46460 | 13218 ft | 296 kts | 259° |
| 2026-05-06 19:02 | 51.17944 | -0.49681 | 13844 ft | 299 kts | 259° |
| 2026-05-06 19:02 | 51.17487 | -0.52925 | 14398 ft | 301 kts | 255° |
| 2026-05-06 19:02 | 51.16730 | -0.56112 | 14634 ft | 317 kts | 249° |
| 2026-05-06 19:03 | 51.15850 | -0.59439 | 14759 ft | 334 kts | 248° |
| 2026-05-06 19:03 | 51.14919 | -0.62927 | 14878 ft | 350 kts | 248° |
| 2026-05-06 19:03 | 51.13945 | -0.66557 | 15158 ft | 360 kts | 248° |
| 2026-05-06 19:03 | 51.12953 | -0.70246 | 15621 ft | 364 kts | 248° |
| 2026-05-06 19:04 | 51.11953 | -0.73956 | 16124 ft | 367 kts | 248° |
| 2026-05-06 19:04 | 51.10943 | -0.77701 | 16646 ft | 369 kts | 248° |
| 2026-05-06 19:04 | 51.09930 | -0.81476 | 17176 ft | 372 kts | 248° |
| 2026-05-06 19:04 | 51.08915 | -0.85262 | 17680 ft | 374 kts | 248° |
| 2026-05-06 19:05 | 51.07889 | -0.89077 | 18186 ft | 377 kts | 248° |
| 2026-05-06 19:05 | 51.06853 | -0.92918 | 18633 ft | 379 kts | 248° |
| 2026-05-06 19:05 | 51.05810 | -0.96775 | 19062 ft | 381 kts | 248° |
| 2026-05-06 19:05 | 51.04760 | -1.00653 | 19482 ft | 383 kts | 248° |
| 2026-05-06 19:06 | 51.03703 | -1.04554 | 19907 ft | 385 kts | 248° |
| 2026-05-06 19:06 | 51.02656 | -1.08419 | 20328 ft | 387 kts | 247° |
| 2026-05-06 19:06 | 51.01590 | -1.12348 | 20748 ft | 389 kts | 247° |
| 2026-05-06 19:06 | 51.00511 | -1.16303 | 21165 ft | 391 kts | 247° |
| 2026-05-06 19:07 | 50.99425 | -1.20266 | 21560 ft | 393 kts | 247° |
| 2026-05-06 19:07 | 50.98687 | -1.22952 | 21831 ft | 395 kts | 247° |
| 2026-05-06 19:07 | 50.97226 | -1.28263 | 22363 ft | 398 kts | 246° |
| 2026-05-06 19:07 | 50.95860 | -1.32091 | 22751 ft | 401 kts | 236° |
| 2026-05-06 19:08 | 50.94060 | -1.35487 | 23141 ft | 404 kts | 225° |
| 2026-05-06 19:08 | 50.91873 | -1.38321 | 23531 ft | 408 kts | 215° |
| 2026-05-06 19:08 | 50.89491 | -1.40780 | 23854 ft | 410 kts | 214° |
| 2026-05-06 19:08 | 50.87089 | -1.43268 | 24184 ft | 412 kts | 215° |
| 2026-05-06 19:09 | 50.84683 | -1.45768 | 24513 ft | 414 kts | 215° |
| 2026-05-06 19:09 | 50.82273 | -1.48277 | 24843 ft | 416 kts | 215° |
| 2026-05-06 19:09 | 50.79852 | -1.50795 | 25159 ft | 418 kts | 215° |
| 2026-05-06 19:09 | 50.77417 | -1.53324 | 25480 ft | 419 kts | 215° |
| 2026-05-06 19:10 | 50.74975 | -1.55853 | 25792 ft | 421 kts | 214° |
| 2026-05-06 19:10 | 50.72516 | -1.58393 | 26103 ft | 423 kts | 214° |
| 2026-05-06 19:10 | 50.70044 | -1.60941 | 26415 ft | 425 kts | 214° |
| 2026-05-06 19:10 | 50.67596 | -1.63460 | 26706 ft | 427 kts | 214° |
| 2026-05-06 19:11 | 50.65108 | -1.66023 | 27003 ft | 429 kts | 214° |
| 2026-05-06 19:11 | 50.62605 | -1.68601 | 27291 ft | 431 kts | 214° |
| 2026-05-06 19:11 | 50.60092 | -1.71185 | 27590 ft | 433 kts | 214° |
| 2026-05-06 19:11 | 50.57561 | -1.73778 | 27886 ft | 434 kts | 214° |
| 2026-05-06 19:12 | 50.55025 | -1.76369 | 28179 ft | 436 kts | 214° |
| 2026-05-06 19:12 | 50.52472 | -1.78974 | 28467 ft | 438 kts | 214° |
| 2026-05-06 19:12 | 50.49913 | -1.81588 | 28745 ft | 440 kts | 214° |
| 2026-05-06 19:12 | 50.47344 | -1.84212 | 29018 ft | 442 kts | 214° |
| 2026-05-06 19:13 | 50.44763 | -1.86849 | 29273 ft | 443 kts | 214° |
| 2026-05-06 19:13 | 50.42170 | -1.89489 | 29523 ft | 445 kts | 214° |
| 2026-05-06 19:13 | 50.39568 | -1.92131 | 29760 ft | 447 kts | 214° |
| 2026-05-06 19:13 | 50.36954 | -1.94781 | 29983 ft | 448 kts | 214° |
| 2026-05-06 19:14 | 50.34368 | -1.97397 | 30185 ft | 449 kts | 214° |
| 2026-05-06 19:14 | 50.31745 | -2.00047 | 30452 ft | 448 kts | 214° |
| 2026-05-06 19:14 | 50.29128 | -2.02690 | 30725 ft | 447 kts | 214° |
| 2026-05-06 19:14 | 50.26514 | -2.05325 | 30993 ft | 447 kts | 214° |
| 2026-05-06 19:15 | 50.23900 | -2.07952 | 31255 ft | 446 kts | 214° |
| 2026-05-06 19:15 | 50.21284 | -2.10550 | 31504 ft | 446 kts | 214° |
| 2026-05-06 19:15 | 50.18659 | -2.13118 | 31769 ft | 445 kts | 213° |
| 2026-05-06 19:15 | 50.16028 | -2.15664 | 32022 ft | 445 kts | 213° |
| 2026-05-06 19:16 | 50.13400 | -2.18194 | 32277 ft | 444 kts | 213° |
| 2026-05-06 19:16 | 50.10773 | -2.20722 | 32525 ft | 443 kts | 213° |
| 2026-05-06 19:16 | 50.08153 | -2.23252 | 32780 ft | 443 kts | 213° |
| 2026-05-06 19:16 | 50.05536 | -2.25787 | 33021 ft | 442 kts | 213° |
| 2026-05-06 19:17 | 50.02929 | -2.28314 | 33268 ft | 442 kts | 213° |
| 2026-05-06 19:17 | 50.00322 | -2.30839 | 33525 ft | 441 kts | 213° |
| 2026-05-06 19:17 | 49.97721 | -2.33353 | 33749 ft | 440 kts | 213° |
| 2026-05-06 19:17 | 49.95117 | -2.35866 | 33995 ft | 440 kts | 213° |
| 2026-05-06 19:18 | 49.92452 | -2.38079 | 34181 ft | 441 kts | 206° |
| 2026-05-06 19:18 | 49.89652 | -2.40024 | 34347 ft | 441 kts | 206° |
| 2026-05-06 19:18 | 49.86853 | -2.41972 | 34510 ft | 442 kts | 206° |
| 2026-05-06 19:18 | 49.84049 | -2.43930 | 34676 ft | 442 kts | 206° |
| 2026-05-06 19:19 | 49.81255 | -2.45888 | 34827 ft | 442 kts | 206° |
| 2026-05-06 19:19 | 49.78446 | -2.47855 | 34972 ft | 443 kts | 206° |
| 2026-05-06 19:19 | 49.75640 | -2.49811 | 35008 ft | 443 kts | 206° |
| 2026-05-06 19:20 | 49.69984 | -2.53737 | 35007 ft | 447 kts | 206° |
| 2026-05-06 19:20 | 49.64303 | -2.57672 | 35004 ft | 448 kts | 206° |
| 2026-05-06 19:21 | 49.58624 | -2.61602 | 35005 ft | 448 kts | 206° |
| 2026-05-06 19:21 | 49.52932 | -2.65536 | 35003 ft | 448 kts | 206° |
| 2026-05-06 19:22 | 49.47233 | -2.69450 | 35007 ft | 449 kts | 205° |
| 2026-05-06 19:22 | 49.41559 | -2.73324 | 35010 ft | 449 kts | 205° |
| 2026-05-06 19:23 | 49.35846 | -2.77223 | 35016 ft | 450 kts | 206° |
| 2026-05-06 19:23 | 49.30129 | -2.81131 | 35022 ft | 450 kts | 206° |
| 2026-05-06 19:24 | 49.24406 | -2.85028 | 35020 ft | 450 kts | 205° |
| 2026-05-06 19:24 | 49.18681 | -2.88910 | 35019 ft | 450 kts | 205° |
| 2026-05-06 19:25 | 49.12951 | -2.92785 | 35020 ft | 450 kts | 205° |
| 2026-05-06 19:25 | 49.08189 | -2.96000 | 35022 ft | 450 kts | 205° |
| 2026-05-06 19:26 | 49.01524 | -3.00495 | 35021 ft | 451 kts | 205° |
| 2026-05-06 19:26 | 48.95792 | -3.04356 | 35021 ft | 451 kts | 205° |
| 2026-05-06 19:27 | 48.91025 | -3.07552 | 35019 ft | 451 kts | 205° |
| 2026-05-06 19:27 | 48.85282 | -3.11391 | 35025 ft | 451 kts | 205° |
| 2026-05-06 19:28 | 48.79542 | -3.15212 | 35014 ft | 451 kts | 205° |
| 2026-05-06 19:28 | 48.73797 | -3.19035 | 35015 ft | 451 kts | 205° |
| 2026-05-06 19:29 | 48.68052 | -3.22861 | 35017 ft | 451 kts | 205° |
| 2026-05-06 19:29 | 48.62311 | -3.26670 | 35017 ft | 451 kts | 205° |
| 2026-05-06 19:30 | 48.56558 | -3.30464 | 35014 ft | 451 kts | 205° |
| 2026-05-06 19:30 | 48.50845 | -3.34221 | 35013 ft | 451 kts | 205° |
| 2026-05-06 19:31 | 48.45096 | -3.38001 | 35013 ft | 451 kts | 205° |
| 2026-05-06 19:31 | 48.36467 | -3.43660 | 35013 ft | 451 kts | 205° |
| 2026-05-06 19:32 | 48.30709 | -3.47420 | 35021 ft | 451 kts | 205° |
| 2026-05-06 19:32 | 48.24954 | -3.51165 | 35012 ft | 451 kts | 205° |
| 2026-05-06 19:33 | 48.19196 | -3.54903 | 35011 ft | 451 kts | 205° |
| 2026-05-06 19:33 | 48.13426 | -3.58649 | 34997 ft | 452 kts | 205° |
| 2026-05-06 19:34 | 48.07686 | -3.62370 | 34986 ft | 454 kts | 205° |
| 2026-05-06 19:34 | 48.01882 | -3.66121 | 34987 ft | 455 kts | 205° |
| 2026-05-06 19:35 | 47.96051 | -3.69872 | 34994 ft | 456 kts | 205° |
| 2026-05-06 19:35 | 47.90223 | -3.73607 | 35010 ft | 457 kts | 205° |
| 2026-05-06 19:36 | 47.84373 | -3.77348 | 35011 ft | 457 kts | 205° |
| 2026-05-06 19:36 | 47.78531 | -3.81088 | 35018 ft | 457 kts | 204° |
| 2026-05-06 19:37 | 47.72716 | -3.84793 | 35020 ft | 458 kts | 204° |
| 2026-05-06 19:37 | 47.66863 | -3.88514 | 35020 ft | 458 kts | 204° |
| 2026-05-06 19:38 | 47.61014 | -3.92231 | 35023 ft | 458 kts | 204° |
| 2026-05-06 19:38 | 47.55157 | -3.95937 | 35022 ft | 457 kts | 204° |
| 2026-05-06 19:39 | 47.49301 | -3.99626 | 35023 ft | 457 kts | 204° |
| 2026-05-06 19:39 | 47.43489 | -4.03287 | 35022 ft | 457 kts | 204° |
| 2026-05-06 19:40 | 47.37635 | -4.06960 | 35024 ft | 457 kts | 204° |
| 2026-05-06 19:40 | 47.31774 | -4.10621 | 35032 ft | 457 kts | 204° |
| 2026-05-06 19:41 | 47.25919 | -4.14285 | 35032 ft | 457 kts | 204° |
| 2026-05-06 19:41 | 47.20058 | -4.17938 | 35035 ft | 457 kts | 204° |
| 2026-05-06 19:42 | 47.14211 | -4.21580 | 35033 ft | 456 kts | 204° |
| 2026-05-06 19:42 | 47.08358 | -4.25216 | 35037 ft | 456 kts | 204° |
| 2026-05-06 19:43 | 47.02524 | -4.28716 | 35034 ft | 456 kts | 202° |
| 2026-05-06 19:43 | 46.96571 | -4.31950 | 35036 ft | 457 kts | 201° |
| 2026-05-06 19:44 | 46.90598 | -4.35119 | 35036 ft | 456 kts | 201° |
| 2026-05-06 19:44 | 46.84650 | -4.38339 | 35040 ft | 456 kts | 202° |
| 2026-05-06 19:45 | 46.78715 | -4.41590 | 35037 ft | 455 kts | 202° |
| 2026-05-06 19:45 | 46.72784 | -4.44829 | 35042 ft | 455 kts | 202° |
| 2026-05-06 19:46 | 46.66884 | -4.48028 | 35042 ft | 455 kts | 202° |
| 2026-05-06 19:46 | 46.60951 | -4.51233 | 35038 ft | 455 kts | 202° |
| 2026-05-06 19:47 | 46.55015 | -4.54434 | 35039 ft | 455 kts | 202° |
| 2026-05-06 19:47 | 46.49084 | -4.57640 | 35046 ft | 455 kts | 202° |
| 2026-05-06 19:48 | 46.43154 | -4.60837 | 35049 ft | 455 kts | 201° |
| 2026-05-06 19:48 | 46.37259 | -4.63990 | 35049 ft | 455 kts | 201° |
| 2026-05-06 19:49 | 46.31326 | -4.67158 | 35049 ft | 455 kts | 201° |
| 2026-05-06 19:49 | 46.25384 | -4.70325 | 35048 ft | 455 kts | 201° |
| 2026-05-06 19:50 | 46.19447 | -4.73487 | 35050 ft | 455 kts | 201° |
| 2026-05-06 19:50 | 46.13502 | -4.76651 | 35053 ft | 455 kts | 201° |
| 2026-05-06 19:51 | 46.07561 | -4.79808 | 35055 ft | 455 kts | 201° |
| 2026-05-06 19:51 | 46.01651 | -4.82929 | 35057 ft | 455 kts | 201° |
| 2026-05-06 19:52 | 45.95708 | -4.86053 | 35056 ft | 455 kts | 201° |
| 2026-05-06 19:52 | 45.89753 | -4.89182 | 35055 ft | 455 kts | 201° |
| 2026-05-06 19:53 | 45.83815 | -4.92324 | 35058 ft | 455 kts | 201° |
| 2026-05-06 19:53 | 45.77871 | -4.95442 | 35056 ft | 455 kts | 201° |
| 2026-05-06 19:54 | 45.71919 | -4.98547 | 35057 ft | 455 kts | 201° |
| 2026-05-06 19:54 | 45.65980 | -5.01641 | 35058 ft | 454 kts | 201° |
| 2026-05-06 19:55 | 45.60037 | -5.04741 | 35057 ft | 454 kts | 201° |
| 2026-05-06 19:55 | 45.54105 | -5.07834 | 35056 ft | 454 kts | 201° |
| 2026-05-06 19:56 | 45.48205 | -5.10895 | 35056 ft | 454 kts | 201° |
| 2026-05-06 19:56 | 45.42268 | -5.13956 | 35056 ft | 454 kts | 201° |
| 2026-05-06 19:57 | 45.36337 | -5.17000 | 35057 ft | 453 kts | 201° |
| 2026-05-06 19:57 | 45.30407 | -5.20053 | 35056 ft | 453 kts | 201° |
| 2026-05-06 19:58 | 45.24484 | -5.23093 | 35055 ft | 453 kts | 201° |
| 2026-05-06 19:58 | 45.18566 | -5.26137 | 35055 ft | 453 kts | 201° |
| 2026-05-06 19:59 | 45.12637 | -5.29166 | 35053 ft | 453 kts | 201° |
| 2026-05-06 19:59 | 45.06713 | -5.32183 | 35056 ft | 453 kts | 201° |
| 2026-05-06 20:00 | 45.00826 | -5.35189 | 35055 ft | 453 kts | 201° |
| 2026-05-06 20:00 | 44.94902 | -5.38197 | 35054 ft | 453 kts | 201° |
| 2026-05-06 20:01 | 44.88976 | -5.41200 | 35054 ft | 453 kts | 201° |
| 2026-05-06 20:01 | 44.83049 | -5.44203 | 35059 ft | 453 kts | 201° |
| 2026-05-06 20:02 | 44.77121 | -5.47191 | 35053 ft | 453 kts | 201° |
| 2026-05-06 20:02 | 44.71191 | -5.50169 | 35054 ft | 452 kts | 201° |
| 2026-05-06 20:03 | 44.65262 | -5.53147 | 35057 ft | 452 kts | 201° |
| 2026-05-06 20:03 | 44.59348 | -5.56164 | 35055 ft | 452 kts | 203° |
| 2026-05-06 20:04 | 44.53575 | -5.59634 | 35054 ft | 451 kts | 206° |
| 2026-05-06 20:04 | 44.47920 | -5.63308 | 35052 ft | 451 kts | 206° |
| 2026-05-06 20:05 | 44.42200 | -5.66949 | 35051 ft | 451 kts | 205° |
| 2026-05-06 20:05 | 44.36451 | -5.70487 | 35053 ft | 452 kts | 205° |
| 2026-05-06 20:06 | 44.30688 | -5.73983 | 35052 ft | 451 kts | 205° |
| 2026-05-06 20:06 | 44.24936 | -5.77485 | 35051 ft | 451 kts | 205° |
| 2026-05-06 20:07 | 44.19196 | -5.80991 | 35055 ft | 451 kts | 205° |
| 2026-05-06 20:07 | 44.13455 | -5.84502 | 35053 ft | 451 kts | 205° |
| 2026-05-06 20:08 | 44.07710 | -5.88005 | 35049 ft | 450 kts | 205° |
| 2026-05-06 20:08 | 44.01970 | -5.91483 | 35050 ft | 450 kts | 205° |
| 2026-05-06 20:09 | 43.96269 | -5.94925 | 35049 ft | 449 kts | 205° |
| 2026-05-06 20:09 | 43.90539 | -5.98391 | 35048 ft | 450 kts | 205° |
| 2026-05-06 20:10 | 43.84805 | -6.01849 | 35053 ft | 449 kts | 205° |
| 2026-05-06 20:10 | 43.79071 | -6.05302 | 35051 ft | 449 kts | 205° |
| 2026-05-06 20:11 | 43.73345 | -6.08746 | 35053 ft | 449 kts | 205° |
| 2026-05-06 20:11 | 43.67623 | -6.12183 | 35054 ft | 449 kts | 205° |
| 2026-05-06 20:12 | 43.61894 | -6.15612 | 35054 ft | 448 kts | 204° |
| 2026-05-06 20:12 | 43.56172 | -6.19028 | 35052 ft | 448 kts | 204° |
| 2026-05-06 20:13 | 43.50444 | -6.22441 | 35054 ft | 448 kts | 204° |
| 2026-05-06 20:13 | 43.44722 | -6.25840 | 35052 ft | 448 kts | 204° |
| 2026-05-06 20:14 | 43.38994 | -6.29230 | 35052 ft | 448 kts | 204° |
| 2026-05-06 20:14 | 43.33278 | -6.32626 | 35054 ft | 448 kts | 205° |
| 2026-05-06 20:15 | 43.27561 | -6.36003 | 35056 ft | 447 kts | 204° |
| 2026-05-06 20:15 | 43.21843 | -6.39372 | 35051 ft | 447 kts | 205° |
| 2026-05-06 20:16 | 43.16136 | -6.42735 | 35044 ft | 446 kts | 204° |
| 2026-05-06 20:16 | 43.10429 | -6.46087 | 35040 ft | 446 kts | 204° |
| 2026-05-06 20:17 | 43.04728 | -6.49420 | 35035 ft | 445 kts | 204° |
| 2026-05-06 20:17 | 42.99067 | -6.52718 | 35031 ft | 445 kts | 204° |
| 2026-05-06 20:18 | 42.93378 | -6.56043 | 35024 ft | 445 kts | 204° |
| 2026-05-06 20:18 | 42.87690 | -6.59367 | 35020 ft | 444 kts | 204° |
| 2026-05-06 20:19 | 42.82007 | -6.62677 | 35013 ft | 444 kts | 204° |
| 2026-05-06 20:19 | 42.76321 | -6.65965 | 35008 ft | 444 kts | 204° |
| 2026-05-06 20:20 | 42.70641 | -6.69244 | 35003 ft | 443 kts | 204° |
| 2026-05-06 20:20 | 42.64967 | -6.72527 | 35001 ft | 443 kts | 204° |
| 2026-05-06 20:21 | 42.59297 | -6.75806 | 34997 ft | 443 kts | 204° |
| 2026-05-06 20:21 | 42.53623 | -6.79070 | 35001 ft | 442 kts | 204° |
| 2026-05-06 20:22 | 42.47956 | -6.82316 | 35006 ft | 442 kts | 204° |
| 2026-05-06 20:22 | 42.42294 | -6.85562 | 34995 ft | 442 kts | 204° |
| 2026-05-06 20:23 | 42.36635 | -6.88813 | 34997 ft | 442 kts | 204° |
| 2026-05-06 20:23 | 42.30971 | -6.92053 | 34999 ft | 442 kts | 204° |
| 2026-05-06 20:24 | 42.25309 | -6.95281 | 34992 ft | 442 kts | 204° |
| 2026-05-06 20:24 | 42.19648 | -6.98498 | 34983 ft | 441 kts | 204° |
| 2026-05-06 20:25 | 42.14021 | -7.01684 | 34989 ft | 441 kts | 204° |
| 2026-05-06 20:25 | 42.08356 | -7.04889 | 34988 ft | 441 kts | 204° |
| 2026-05-06 20:26 | 42.02683 | -7.08016 | 34977 ft | 442 kts | 198° |
| 2026-05-06 20:26 | 41.96597 | -7.09247 | 34979 ft | 444 kts | 188° |
| 2026-05-06 20:27 | 41.90458 | -7.10184 | 34959 ft | 444 kts | 188° |
| 2026-05-06 20:27 | 41.84330 | -7.11066 | 34956 ft | 444 kts | 188° |
| 2026-05-06 20:28 | 41.78176 | -7.11916 | 34957 ft | 444 kts | 188° |
| 2026-05-06 20:28 | 41.72039 | -7.12772 | 34955 ft | 444 kts | 188° |
| 2026-05-06 20:29 | 41.65895 | -7.13646 | 34961 ft | 444 kts | 188° |
| 2026-05-06 20:29 | 41.60799 | -7.14369 | 34945 ft | 443 kts | 188° |
| 2026-05-06 20:30 | 41.51597 | -7.15666 | 34943 ft | 443 kts | 188° |
| 2026-05-06 20:31 | 41.45469 | -7.16527 | 34946 ft | 443 kts | 188° |
| 2026-05-06 20:31 | 41.39338 | -7.17379 | 34940 ft | 443 kts | 188° |
| 2026-05-06 20:32 | 41.33210 | -7.18236 | 34945 ft | 443 kts | 188° |
| 2026-05-06 20:32 | 41.27084 | -7.19092 | 34937 ft | 442 kts | 189° |
| 2026-05-06 20:33 | 41.20965 | -7.19951 | 34939 ft | 442 kts | 189° |
| 2026-05-06 20:33 | 41.14842 | -7.20801 | 34940 ft | 442 kts | 189° |
| 2026-05-06 20:34 | 41.08776 | -7.21634 | 34946 ft | 441 kts | 189° |
| 2026-05-06 20:34 | 41.02691 | -7.22479 | 34950 ft | 438 kts | 189° |
| 2026-05-06 20:35 | 40.96633 | -7.23325 | 34954 ft | 437 kts | 189° |
| 2026-05-06 20:35 | 40.90590 | -7.24160 | 34950 ft | 436 kts | 189° |
| 2026-05-06 20:36 | 40.84558 | -7.24983 | 34948 ft | 435 kts | 189° |
| 2026-05-06 20:36 | 40.78536 | -7.25810 | 34951 ft | 435 kts | 189° |
| 2026-05-06 20:37 | 40.72527 | -7.26637 | 34949 ft | 434 kts | 189° |
| 2026-05-06 20:37 | 40.66563 | -7.27457 | 34950 ft | 434 kts | 189° |
| 2026-05-06 20:38 | 40.60555 | -7.28274 | 34946 ft | 434 kts | 189° |
| 2026-05-06 20:38 | 40.54552 | -7.29092 | 34947 ft | 433 kts | 189° |
| 2026-05-06 20:39 | 40.48563 | -7.29914 | 34948 ft | 433 kts | 189° |
| 2026-05-06 20:39 | 40.42567 | -7.30730 | 34945 ft | 433 kts | 189° |
| 2026-05-06 20:40 | 40.36585 | -7.31542 | 34935 ft | 432 kts | 189° |
| 2026-05-06 20:40 | 40.30603 | -7.32354 | 34933 ft | 432 kts | 189° |
| 2026-05-06 20:41 | 40.24617 | -7.33167 | 34932 ft | 432 kts | 189° |
| 2026-05-06 20:41 | 40.18635 | -7.33978 | 34935 ft | 432 kts | 189° |
| 2026-05-06 20:42 | 40.12699 | -7.34776 | 34934 ft | 432 kts | 189° |
| 2026-05-06 20:42 | 40.06681 | -7.35591 | 34926 ft | 432 kts | 189° |
| 2026-05-06 20:43 | 40.00742 | -7.36391 | 34920 ft | 432 kts | 189° |
| 2026-05-06 20:43 | 39.94766 | -7.37190 | 34916 ft | 432 kts | 189° |
| 2026-05-06 20:44 | 39.88781 | -7.37983 | 34915 ft | 432 kts | 189° |
| 2026-05-06 20:44 | 39.82796 | -7.38782 | 34912 ft | 432 kts | 189° |
| 2026-05-06 20:45 | 39.76809 | -7.39583 | 34913 ft | 432 kts | 189° |
| 2026-05-06 20:45 | 39.70821 | -7.40377 | 34906 ft | 433 kts | 189° |
| 2026-05-06 20:46 | 39.64832 | -7.41182 | 34915 ft | 433 kts | 189° |
| 2026-05-06 20:46 | 39.58838 | -7.41982 | 34911 ft | 433 kts | 189° |
| 2026-05-06 20:47 | 39.52875 | -7.42766 | 34914 ft | 433 kts | 189° |
| 2026-05-06 20:47 | 39.46879 | -7.43562 | 34916 ft | 433 kts | 189° |
| 2026-05-06 20:48 | 39.40883 | -7.44362 | 34914 ft | 433 kts | 189° |
| 2026-05-06 20:48 | 39.34876 | -7.45146 | 34916 ft | 434 kts | 189° |
| 2026-05-06 20:49 | 39.28870 | -7.45928 | 34918 ft | 434 kts | 189° |
| 2026-05-06 20:49 | 39.22866 | -7.46716 | 34918 ft | 434 kts | 189° |
| 2026-05-06 20:50 | 39.16853 | -7.47499 | 34916 ft | 434 kts | 189° |
| 2026-05-06 20:50 | 39.10838 | -7.48282 | 34920 ft | 434 kts | 189° |
| 2026-05-06 20:51 | 39.04865 | -7.49069 | 34919 ft | 435 kts | 189° |
| 2026-05-06 20:51 | 38.98843 | -7.49860 | 34917 ft | 435 kts | 189° |
| 2026-05-06 20:52 | 38.92820 | -7.50650 | 34918 ft | 435 kts | 189° |
| 2026-05-06 20:52 | 38.86788 | -7.51436 | 34916 ft | 436 kts | 189° |
| 2026-05-06 20:53 | 38.80753 | -7.52215 | 34917 ft | 436 kts | 189° |
| 2026-05-06 20:53 | 38.74719 | -7.52986 | 34917 ft | 436 kts | 189° |
| 2026-05-06 20:54 | 38.68723 | -7.53759 | 34434 ft | 429 kts | 189° |
| 2026-05-06 20:54 | 38.65752 | -7.54145 | 33814 ft | 428 kts | 189° |
| 2026-05-06 20:54 | 38.62809 | -7.54529 | 33327 ft | 422 kts | 189° |
| 2026-05-06 20:54 | 38.59909 | -7.54906 | 32845 ft | 417 kts | 189° |
| 2026-05-06 20:55 | 38.57038 | -7.55275 | 32384 ft | 412 kts | 189° |
| 2026-05-06 20:55 | 38.54241 | -7.55631 | 31928 ft | 407 kts | 189° |
| 2026-05-06 20:55 | 38.51435 | -7.55989 | 31463 ft | 402 kts | 189° |
| 2026-05-06 20:55 | 38.48667 | -7.56343 | 31008 ft | 397 kts | 189° |
| 2026-05-06 20:56 | 38.45934 | -7.56695 | 30554 ft | 393 kts | 189° |
| 2026-05-06 20:56 | 38.43231 | -7.57044 | 30108 ft | 388 kts | 189° |
| 2026-05-06 20:56 | 38.40565 | -7.57386 | 29624 ft | 383 kts | 189° |
| 2026-05-06 20:56 | 38.37936 | -7.57721 | 29185 ft | 377 kts | 189° |
| 2026-05-06 20:57 | 38.35350 | -7.58049 | 28758 ft | 371 kts | 189° |
| 2026-05-06 20:57 | 38.32801 | -7.58376 | 28347 ft | 365 kts | 189° |
| 2026-05-06 20:57 | 38.30301 | -7.58698 | 27939 ft | 359 kts | 189° |
| 2026-05-06 20:57 | 38.27828 | -7.59018 | 27551 ft | 354 kts | 189° |
| 2026-05-06 20:58 | 38.25431 | -7.59326 | 27165 ft | 349 kts | 189° |
| 2026-05-06 20:58 | 38.23036 | -7.59632 | 26798 ft | 344 kts | 189° |
| 2026-05-06 20:58 | 38.20663 | -7.59936 | 26431 ft | 341 kts | 189° |
| 2026-05-06 20:58 | 38.18306 | -7.60238 | 26066 ft | 340 kts | 189° |
| 2026-05-06 20:59 | 38.15956 | -7.60537 | 25709 ft | 339 kts | 189° |
| 2026-05-06 20:59 | 38.13611 | -7.60836 | 25355 ft | 337 kts | 189° |
| 2026-05-06 20:59 | 38.11280 | -7.61132 | 24998 ft | 336 kts | 189° |
| 2026-05-06 20:59 | 38.08964 | -7.61414 | 24625 ft | 335 kts | 186° |
| 2026-05-06 21:00 | 38.06625 | -7.61440 | 24256 ft | 335 kts | 183° |
| 2026-05-06 21:00 | 38.04306 | -7.61433 | 23877 ft | 333 kts | 183° |
| 2026-05-06 21:00 | 38.01991 | -7.61433 | 23496 ft | 332 kts | 183° |
| 2026-05-06 21:00 | 37.99687 | -7.61437 | 23075 ft | 330 kts | 183° |
| 2026-05-06 21:01 | 37.97401 | -7.61440 | 22682 ft | 328 kts | 183° |
| 2026-05-06 21:01 | 37.95122 | -7.61443 | 22297 ft | 326 kts | 183° |
| 2026-05-06 21:01 | 37.92861 | -7.61446 | 21899 ft | 324 kts | 183° |
| 2026-05-06 21:01 | 37.90642 | -7.61448 | 21509 ft | 322 kts | 183° |
| 2026-05-06 21:02 | 37.88406 | -7.61448 | 21115 ft | 320 kts | 183° |
| 2026-05-06 21:02 | 37.86187 | -7.61448 | 20717 ft | 318 kts | 183° |
| 2026-05-06 21:02 | 37.83976 | -7.61448 | 20318 ft | 316 kts | 183° |
| 2026-05-06 21:02 | 37.81780 | -7.61449 | 19922 ft | 315 kts | 182° |
| 2026-05-06 21:03 | 37.79593 | -7.61446 | 19521 ft | 313 kts | 182° |
| 2026-05-06 21:03 | 37.77423 | -7.61443 | 19133 ft | 311 kts | 183° |
| 2026-05-06 21:03 | 37.75263 | -7.61444 | 18740 ft | 309 kts | 182° |
| 2026-05-06 21:03 | 37.73118 | -7.61447 | 18349 ft | 308 kts | 183° |
| 2026-05-06 21:04 | 37.70987 | -7.61450 | 17925 ft | 306 kts | 182° |
| 2026-05-06 21:04 | 37.68862 | -7.61452 | 17530 ft | 304 kts | 182° |
| 2026-05-06 21:04 | 37.66749 | -7.61454 | 17139 ft | 303 kts | 182° |
| 2026-05-06 21:04 | 37.64648 | -7.61458 | 16746 ft | 301 kts | 182° |
| 2026-05-06 21:05 | 37.62556 | -7.61460 | 16362 ft | 300 kts | 182° |
| 2026-05-06 21:05 | 37.60474 | -7.61459 | 15979 ft | 298 kts | 182° |
| 2026-05-06 21:05 | 37.58406 | -7.61459 | 15594 ft | 297 kts | 182° |
| 2026-05-06 21:05 | 37.56343 | -7.61459 | 15218 ft | 296 kts | 182° |
| 2026-05-06 21:06 | 37.54289 | -7.61459 | 14840 ft | 294 kts | 182° |
| 2026-05-06 21:06 | 37.52247 | -7.61458 | 14457 ft | 293 kts | 182° |
| 2026-05-06 21:06 | 37.50216 | -7.61457 | 14085 ft | 291 kts | 182° |
| 2026-05-06 21:06 | 37.48194 | -7.61457 | 13723 ft | 290 kts | 182° |
| 2026-05-06 21:07 | 37.46180 | -7.61457 | 13310 ft | 288 kts | 182° |
| 2026-05-06 21:07 | 37.44183 | -7.61459 | 12941 ft | 287 kts | 182° |
| 2026-05-06 21:07 | 37.42218 | -7.61461 | 12579 ft | 285 kts | 182° |
| 2026-05-06 21:07 | 37.40237 | -7.61462 | 12217 ft | 283 kts | 182° |
| 2026-05-06 21:08 | 37.38275 | -7.61463 | 11856 ft | 282 kts | 181° |
| 2026-05-06 21:08 | 37.36322 | -7.61467 | 11497 ft | 280 kts | 181° |
| 2026-05-06 21:08 | 37.34382 | -7.61467 | 11146 ft | 278 kts | 181° |
| 2026-05-06 21:08 | 37.32462 | -7.61464 | 10866 ft | 278 kts | 181° |
| 2026-05-06 21:09 | 37.30525 | -7.61465 | 10527 ft | 278 kts | 181° |
| 2026-05-06 21:09 | 37.28596 | -7.61466 | 10200 ft | 276 kts | 180° |
| 2026-05-06 21:09 | 37.26659 | -7.61465 | 10120 ft | 281 kts | 180° |
| 2026-05-06 21:09 | 37.24703 | -7.61461 | 10001 ft | 282 kts | 180° |
| 2026-05-06 21:10 | 37.22721 | -7.61459 | 9513 ft | 288 kts | 180° |
| 2026-05-06 21:10 | 37.20731 | -7.61462 | 9060 ft | 287 kts | 180° |
| 2026-05-06 21:10 | 37.18746 | -7.61466 | 8696 ft | 283 kts | 180° |
| 2026-05-06 21:10 | 37.16778 | -7.61469 | 8262 ft | 282 kts | 179° |
| 2026-05-06 21:11 | 37.14825 | -7.61470 | 7727 ft | 280 kts | 179° |
| 2026-05-06 21:11 | 37.12881 | -7.61473 | 7113 ft | 279 kts | 178° |
| 2026-05-06 21:11 | 37.10944 | -7.61475 | 6515 ft | 278 kts | 177° |
| 2026-05-06 21:11 | 37.09019 | -7.61520 | 5943 ft | 278 kts | 184° |
| 2026-05-06 21:12 | 37.07143 | -7.62089 | 5427 ft | 278 kts | 201° |
| 2026-05-06 21:12 | 37.05382 | -7.63061 | 4960 ft | 272 kts | 202° |
| 2026-05-06 21:12 | 37.03707 | -7.63987 | 4892 ft | 256 kts | 202° |
| 2026-05-06 21:12 | 37.02147 | -7.64847 | 4856 ft | 240 kts | 202° |
| 2026-05-06 21:13 | 37.00664 | -7.65664 | 4719 ft | 226 kts | 202° |
| 2026-05-06 21:13 | 36.99333 | -7.66678 | 4463 ft | 223 kts | 221° |
| 2026-05-06 21:13 | 36.98373 | -7.68174 | 4285 ft | 221 kts | 242° |
| 2026-05-06 21:13 | 36.97873 | -7.69980 | 4075 ft | 219 kts | 262° |
| 2026-05-06 21:14 | 36.97892 | -7.71838 | 3836 ft | 209 kts | 281° |
| 2026-05-06 21:14 | 36.98145 | -7.73588 | 3563 ft | 200 kts | 281° |
| 2026-05-06 21:14 | 36.98387 | -7.75259 | 3321 ft | 189 kts | 282° |
| 2026-05-06 21:14 | 36.98613 | -7.76827 | 3067 ft | 178 kts | 282° |
| 2026-05-06 21:15 | 36.98825 | -7.78302 | 2828 ft | 167 kts | 283° |
| 2026-05-06 21:15 | 36.99024 | -7.79691 | 2608 ft | 159 kts | 285° |
| 2026-05-06 21:15 | 36.99218 | -7.81033 | 2411 ft | 159 kts | 285° |
| 2026-05-06 21:15 | 36.99415 | -7.82398 | 2190 ft | 160 kts | 285° |
| 2026-05-06 21:16 | 36.99607 | -7.83743 | 1991 ft | 157 kts | 285° |
| 2026-05-06 21:16 | 36.99802 | -7.85103 | 1771 ft | 155 kts | 287° |
| 2026-05-06 21:16 | 36.99979 | -7.86354 | 1572 ft | 143 kts | 288° |
| 2026-05-06 21:16 | 37.00153 | -7.87563 | 1378 ft | 139 kts | 287° |
| 2026-05-06 21:17 | 37.00322 | -7.88735 | 1191 ft | 136 kts | 285° |
| 2026-05-06 21:17 | 37.00491 | -7.89907 | 1002 ft | 138 kts | 286° |
| 2026-05-06 21:17 | 37.00661 | -7.91077 | 824 ft | 136 kts | 284° |
| 2026-05-06 21:17 | 37.00828 | -7.92246 | 656 ft | 137 kts | 283° |
| 2026-05-06 21:18 | 37.00997 | -7.93423 | 462 ft | 137 kts | 282° |
| 2026-05-06 21:18 | 37.01164 | -7.94616 | 264 ft | 137 kts | 282° |
| 2026-05-06 21:18 | 37.01331 | -7.95775 | 93 ft | 136 kts | 281° |
| 2026-05-06 21:18 | 37.01492 | -7.96897 | 22 ft | 119 kts | 280° |
| 2026-05-06 21:19 | 37.01585 | -7.97564 | 19 ft | 35 kts | 280° |
| 2026-05-06 21:19 | 37.01616 | -7.97787 | 20 ft | 14 kts | 279° |
| 2026-05-06 21:19 | 37.01657 | -7.97850 | 20 ft | 8 kts | 352° |
| 2026-05-06 21:19 | 37.01702 | -7.97831 | 20 ft | 7 kts | 35° |
| 2026-05-06 21:20 | 37.01736 | -7.97778 | 20 ft | 9 kts | 60° |
| 2026-05-06 21:20 | 37.01753 | -7.97731 | 21 ft | 10 kts | 69° |
| 2026-05-06 21:20 | 37.01770 | -7.97619 | 20 ft | 7 kts | 90° |
| 2026-05-06 21:20 | 37.01768 | -7.97584 | 20 ft | 3 kts | 95° |
| 2026-05-06 21:21 | 37.01764 | -7.97554 | 20 ft | 5 kts | 98° |
| 2026-05-06 21:21 | 37.01758 | -7.97504 | 20 ft | 7 kts | 98° |
| 2026-05-06 21:21 | 37.01749 | -7.97438 | 20 ft | 9 kts | 101° |
| 2026-05-06 21:21 | 37.01737 | -7.97359 | 20 ft | 9 kts | 101° |
| 2026-05-06 21:22 | 37.01727 | -7.97288 | 20 ft | 7 kts | 100° |
| 2026-05-06 21:22 | 37.01719 | -7.97230 | 20 ft | 7 kts | 99° |
| 2026-05-06 21:22 | 37.01710 | -7.97168 | 20 ft | 8 kts | 99° |
| 2026-05-06 21:22 | 37.01701 | -7.97101 | 20 ft | 8 kts | 100° |
| 2026-05-06 21:23 | 37.01690 | -7.97026 | 20 ft | 9 kts | 100° |
| 2026-05-06 21:23 | 37.01681 | -7.96955 | 21 ft | 8 kts | 93° |
| 2026-05-06 21:23 | 37.01712 | -7.96907 | 20 ft | 7 kts | 26° |
| 2026-05-06 21:23 | 37.01760 | -7.96894 | 20 ft | 7 kts | 7° |
| 2026-05-06 21:24 | 37.01805 | -7.96885 | 22 ft | 6 kts | 5° |
| 2026-05-06 21:24 | 37.01836 | -7.96911 | 21 ft | 5 kts | 313° |
| 2026-05-06 21:24 | 37.01859 | -7.96920 | 20 ft | 3 kts | 356° |
| 2026-05-06 21:24 | 37.01881 | -7.96917 | 20 ft | 4 kts | 6° |
| 2026-05-06 21:25 | 37.01905 | -7.96912 | 20 ft | 3 kts | 10° |
| 2026-05-06 21:25 | 37.01917 | -7.96910 | 20 ft | 1 kts | 9° |
| 2026-05-06 21:25 | 37.01921 | -7.96909 | 20 ft | 1 kts | 10° |
| 2026-05-06 21:25 | 37.01922 | -7.96908 | 20 ft | 0 kts | 10° |